Coppock, Iowa
Current Conditions -  °F | °C
As of 12:55 PM on Friday 24 Oct 2014 (Local Time) from KAWG Reporting Station
Overcast Overcast  
Wind Chill: 15°   Ceiling: 600
Heat Index: 15°   Visibility: 8mi
Dew Point: 15°   Wind: 12mph
Humidity: 100%   Direction: 180°S
Pressure: 30"   Gusts: NA
Location:  41.1406°N, 91.6635°W
Report Text: KAWG 241755Z AUTO 18010KT 8SM OVC006 15/15 A3000 RMK AO2
Loading
Personal Weather Stations






























Interactive Weather Map
Tropical Storm Tracking
New forecast layout! Learn more

10-Day Weather Forecast

Advertisements
Track Severe Weather on mobile